Time;durP1;ratioP1;P1;durP2;ratioP2;P2;SDS_P1;SDS_P2;PMS_P1;PMS_P2;Temp;Humidity;BMP_temperature;BMP_pressure;BME280_temperature;BME280_humidity;BME280_pressure;Samples;Min_cycle;Max_cycle;Signal;HPM_P1;HPM_P2
2023/06/19 00:01:44;;;;;;;15.60;11.67;;;20.70;99.90;;;;;;5072875;28;20724;-77
2023/06/19 00:04:10;;;;;;;12.57;10.70;;;20.70;99.90;;;;;;5090896;28;20944;-77
2023/06/19 00:06:36;;;;;;;14.20;10.97;;;20.70;99.90;;;;;;5090884;28;20555;-77
2023/06/19 00:09:02;;;;;;;12.87;10.60;;;20.60;99.90;;;;;;5072891;28;20448;-86
2023/06/19 00:11:28;;;;;;;13.47;10.57;;;20.60;99.90;;;;;;5090710;28;20393;-77
2023/06/19 00:13:54;;;;;;;13.83;11.60;;;20.50;99.90;;;;;;5090563;28;20543;-79
2023/06/19 00:16:19;;;;;;;12.67;10.83;;;20.50;99.90;;;;;;5072257;28;20309;-77
2023/06/19 00:18:46;;;;;;;13.87;11.20;;;20.50;99.90;;;;;;5072552;28;20212;-77
2023/06/19 00:21:11;;;;;;;12.97;11.60;;;20.50;99.90;;;;;;5072106;28;20190;-86
2023/06/19 00:23:37;;;;;;;14.67;13.20;;;20.40;99.90;;;;;;5072335;28;20496;-86
2023/06/19 00:26:03;;;;;;;13.80;11.93;;;20.40;99.90;;;;;;5089152;28;20419;-85
2023/06/19 00:28:30;;;;;;;15.77;13.83;;;20.40;99.90;;;;;;5090182;28;20533;-85
2023/06/19 00:30:55;;;;;;;15.73;12.73;;;20.30;99.90;;;;;;5090498;28;20217;-85
2023/06/19 00:33:21;;;;;;;17.03;12.43;;;20.30;99.90;;;;;;5090152;28;20405;-77
2023/06/19 00:35:49;;;;;;;13.70;11.17;;;20.30;99.90;;;;;;5089310;28;20258;-76
2023/06/19 00:38:15;;;;;;;13.23;11.93;;;20.20;99.90;;;;;;5090096;28;20169;-77
2023/06/19 00:40:40;;;;;;;12.67;11.37;;;20.20;99.90;;;;;;5090892;28;20440;-76
2023/06/19 00:43:06;;;;;;;14.87;12.27;;;20.20;99.90;;;;;;5090199;28;20235;-86
2023/06/19 00:45:33;;;;;;;13.17;11.33;;;20.30;99.90;;;;;;5090749;28;20676;-86
2023/06/19 00:48:00;;;;;;;12.43;11.13;;;20.30;99.90;;;;;;5089835;28;20447;-84
2023/06/19 00:50:29;;;;;;;14.63;12.20;;;20.30;99.90;;;;;;5090324;28;20195;-77
2023/06/19 00:52:55;;;;;;;12.77;11.33;;;20.30;99.90;;;;;;5071915;28;20413;-86
2023/06/19 00:55:21;;;;;;;13.60;12.30;;;20.20;99.90;;;;;;5071812;28;20484;-77
2023/06/19 00:57:49;;;;;;;12.97;11.33;;;20.20;99.90;;;;;;5090026;28;20175;-77
2023/06/19 01:00:15;;;;;;;13.73;10.43;;;20.10;99.90;;;;;;5071301;28;20440;-77
2023/06/19 01:02:40;;;;;;;11.70;10.57;;;20.00;99.90;;;;;;5089162;28;20408;-80
2023/06/19 01:05:06;;;;;;;13.80;11.10;;;19.90;99.90;;;;;;5071368;28;20204;-77
2023/06/19 01:07:44;;;;;;;13.90;11.63;;;19.90;99.90;;;;;;5090148;28;20699;-77
2023/06/19 01:10:16;;;;;;;15.73;12.23;;;19.80;99.90;;;;;;5089810;28;20444;-86
2023/06/19 01:12:52;;;;;;;13.60;12.20;;;19.80;99.90;;;;;;5089586;28;20393;-77
2023/06/19 01:15:19;;;;;;;13.27;11.70;;;19.80;99.90;;;;;;5089523;28;21073;-85
2023/06/19 01:17:47;;;;;;;14.57;12.43;;;19.80;99.90;;;;;;5071743;28;20437;-77
2023/06/19 01:20:14;;;;;;;14.17;12.33;;;19.80;99.90;;;;;;5089535;28;20786;-77
2023/06/19 01:22:43;;;;;;;13.93;12.50;;;19.80;99.90;;;;;;5071214;28;20409;-86
2023/06/19 01:25:09;;;;;;;13.57;12.27;;;19.70;99.90;;;;;;5089639;28;20797;-85
2023/06/19 01:27:35;;;;;;;14.13;12.10;;;19.70;99.90;;;;;;5070879;28;20416;-77
2023/06/19 01:30:03;;;;;;;15.53;12.50;;;19.60;99.90;;;;;;5089263;28;20972;-86
2023/06/19 01:32:48;;;;;;;14.00;12.60;;;19.60;99.90;;;;;;5070959;28;20750;-77
2023/06/19 01:35:19;;;;;;;14.43;11.43;;;19.50;99.90;;;;;;5089177;28;20605;-76
2023/06/19 01:37:46;;;;;;;13.60;11.33;;;19.50;99.90;;;;;;5089436;28;20440;-85
2023/06/19 01:40:13;;;;;;;12.60;11.30;;;19.50;99.90;;;;;;5089427;28;20535;-77
2023/06/19 01:42:40;;;;;;;13.07;11.87;;;19.40;99.90;;;;;;5070707;28;20497;-86
2023/06/19 01:45:07;;;;;;;14.23;12.63;;;19.40;99.90;;;;;;5088892;28;20614;-85
2023/06/19 01:47:33;;;;;;;13.60;11.73;;;19.40;99.90;;;;;;5070867;28;20464;-77
2023/06/19 01:49:59;;;;;;;13.90;12.50;;;19.40;99.90;;;;;;5089051;28;20475;-86
2023/06/19 01:52:25;;;;;;;13.90;12.53;;;19.40;99.90;;;;;;5070304;28;20267;-77
2023/06/19 01:54:51;;;;;;;13.87;12.37;;;19.40;99.90;;;;;;5070803;28;20553;-77
2023/06/19 01:57:16;;;;;;;12.87;11.53;;;19.40;99.90;;;;;;5088487;28;20409;-85
2023/06/19 01:59:42;;;;;;;13.43;12.07;;;19.40;99.90;;;;;;5089199;28;20463;-77
2023/06/19 02:02:08;;;;;;;12.30;11.03;;;19.40;99.90;;;;;;5088264;28;20247;-77
2023/06/19 02:04:33;;;;;;;14.27;11.90;;;19.30;99.90;;;;;;5069456;28;20207;-77
2023/06/19 02:06:59;;;;;;;13.80;12.50;;;19.30;99.90;;;;;;5088369;28;20179;-85
2023/06/19 02:09:25;;;;;;;13.30;11.57;;;19.30;99.90;;;;;;5087436;28;20307;-85
2023/06/19 02:11:50;;;;;;;13.87;12.00;;;19.20;99.90;;;;;;5087500;28;20477;-77
2023/06/19 02:14:16;;;;;;;14.00;12.13;;;19.20;99.90;;;;;;5088261;28;20250;-86
2023/06/19 02:16:43;;;;;;;13.70;12.40;;;19.10;99.90;;;;;;5088481;28;20214;-84
2023/06/19 02:19:10;;;;;;;15.73;12.40;;;19.10;99.90;;;;;;5088276;28;20190;-85
2023/06/19 02:21:36;;;;;;;16.40;13.00;;;19.10;99.90;;;;;;5088590;28;20416;-77
2023/06/19 02:24:02;;;;;;;14.70;13.10;;;19.00;99.90;;;;;;5088439;28;20505;-85
2023/06/19 02:26:29;;;;;;;14.30;12.17;;;19.00;99.90;;;;;;5088290;28;20416;-77
2023/06/19 02:28:55;;;;;;;16.40;12.43;;;19.00;99.90;;;;;;5088270;28;20458;-86
2023/06/19 02:31:22;;;;;;;14.90;13.13;;;19.00;99.90;;;;;;5087449;28;20508;-85
2023/06/19 02:33:48;;;;;;;15.10;12.20;;;18.90;99.90;;;;;;5088133;28;20435;-86
2023/06/19 02:36:19;;;;;;;14.73;12.33;;;18.90;99.90;;;;;;5088048;28;21121;-85
2023/06/19 02:38:47;;;;;;;14.03;12.20;;;18.90;99.90;;;;;;5088061;28;20403;-78
2023/06/19 02:41:13;;;;;;;18.10;13.10;;;18.90;99.90;;;;;;5087714;28;20453;-77
2023/06/19 02:43:42;;;;;;;16.20;13.03;;;18.90;99.90;;;;;;5086783;28;20548;-84
2023/06/19 02:46:09;;;;;;;14.80;12.23;;;18.90;99.90;;;;;;5087776;28;20659;-85
2023/06/19 02:48:35;;;;;;;15.37;12.90;;;18.90;99.90;;;;;;5087622;28;20430;-85
2023/06/19 02:51:00;;;;;;;18.47;12.60;;;18.90;99.90;;;;;;5088184;28;20411;-77
2023/06/19 02:53:26;;;;;;;13.40;11.97;;;18.80;99.90;;;;;;5069038;28;20908;-77
2023/06/19 02:55:51;;;;;;;13.90;12.23;;;18.90;99.90;;;;;;5088165;28;20260;-83
2023/06/19 02:58:17;;;;;;;14.40;12.27;;;18.80;99.90;;;;;;5087311;28;20822;-84
2023/06/19 03:00:44;;;;;;;13.10;11.07;;;18.80;99.90;;;;;;5088144;28;20210;-86
2023/06/19 03:03:09;;;;;;;13.90;12.43;;;18.80;99.90;;;;;;5087414;28;20182;-85
2023/06/19 03:05:35;;;;;;;14.03;11.83;;;18.90;99.90;;;;;;5069060;28;20954;-76
2023/06/19 03:08:01;;;;;;;12.47;11.17;;;19.00;99.90;;;;;;5087265;28;20174;-80
2023/06/19 03:10:26;;;;;;;16.10;11.17;;;19.10;99.90;;;;;;5086425;28;20198;-86
2023/06/19 03:12:52;;;;;;;14.20;11.90;;;19.20;99.90;;;;;;5087620;28;20190;-84
2023/06/19 03:15:17;;;;;;;15.13;13.00;;;19.30;99.90;;;;;;5087591;28;20225;-85
2023/06/19 03:17:43;;;;;;;16.43;13.80;;;19.40;99.90;;;;;;5069323;28;20180;-82
2023/06/19 03:20:12;;;;;;;14.70;11.70;;;19.40;99.90;;;;;;5087476;28;20184;-80
2023/06/19 03:22:41;;;;;;;13.57;11.73;;;19.50;99.90;;;;;;5087055;28;20398;-85
2023/06/19 03:25:08;;;;;;;16.23;12.50;;;19.50;99.90;;;;;;5069290;28;20470;-76
2023/06/19 03:27:34;;;;;;;13.40;12.00;;;19.50;99.90;;;;;;5087077;28;20496;-77
2023/06/19 03:29:59;;;;;;;13.50;12.20;;;19.60;99.90;;;;;;5069312;28;20734;-85
2023/06/19 03:32:25;;;;;;;12.97;11.50;;;19.60;99.90;;;;;;5068436;28;20613;-83
2023/06/19 03:34:51;;;;;;;12.97;11.37;;;19.70;99.90;;;;;;5087477;28;20765;-77
2023/06/19 03:37:17;;;;;;;13.33;11.67;;;19.70;99.90;;;;;;5068828;28;20235;-85
2023/06/19 03:39:43;;;;;;;13.80;12.40;;;19.70;99.90;;;;;;5086442;28;20700;-85
2023/06/19 03:42:08;;;;;;;14.20;12.23;;;19.70;99.90;;;;;;5086873;28;20432;-77
2023/06/19 03:44:34;;;;;;;14.70;12.00;;;19.80;99.90;;;;;;5068779;28;21010;-84
2023/06/19 03:47:00;;;;;;;14.20;12.00;;;19.80;99.90;;;;;;5087093;28;20187;-77
2023/06/19 03:49:25;;;;;;;15.37;12.20;;;19.80;99.90;;;;;;5068863;28;20447;-77
2023/06/19 03:51:54;;;;;;;16.07;12.80;;;19.80;99.90;;;;;;5086966;28;20175;-77
2023/06/19 03:54:20;;;;;;;13.90;12.50;;;19.80;99.90;;;;;;5087110;28;20192;-86
2023/06/19 03:56:45;;;;;;;14.30;12.47;;;19.60;99.90;;;;;;5068756;28;20995;-85
2023/06/19 03:59:11;;;;;;;14.03;12.63;;;19.60;99.90;;;;;;5086751;28;20463;-85
2023/06/19 04:01:36;;;;;;;15.60;12.87;;;19.60;99.90;;;;;;5087078;28;20173;-81
2023/06/19 04:04:02;;;;;;;16.70;11.00;;;19.60;99.90;;;;;;5086194;28;20204;-77
2023/06/19 04:06:28;;;;;;;15.63;11.70;;;19.60;99.90;;;;;;5086522;28;20176;-85
2023/06/19 04:08:54;;;;;;;18.50;12.10;;;19.70;99.90;;;;;;5087183;28;20345;-81
2023/06/19 04:11:20;;;;;;;13.93;12.30;;;19.70;99.90;;;;;;5086698;28;20176;-80
2023/06/19 04:13:46;;;;;;;15.07;11.87;;;19.70;99.90;;;;;;5086919;28;20198;-77
2023/06/19 04:16:12;;;;;;;14.13;11.27;;;19.80;99.90;;;;;;5068461;28;20494;-78
2023/06/19 04:18:38;;;;;;;14.50;12.37;;;19.80;99.90;;;;;;5068176;28;20424;-84
2023/06/19 04:21:04;;;;;;;23.10;17.40;;;19.90;99.90;;;;;;5085985;28;20932;-85
2023/06/19 04:23:30;;;;;;;32.27;19.67;;;19.90;99.90;;;;;;5085392;28;20433;-77
2023/06/19 04:25:55;;;;;;;20.77;15.47;;;20.00;99.90;;;;;;5059782;28;20616;-83
2023/06/19 04:28:21;;;;;;;18.50;14.43;;;20.10;99.90;;;;;;5086647;28;20269;-77
2023/06/19 04:30:46;;;;;;;13.90;12.47;;;20.20;99.90;;;;;;5067686;28;20214;-84
2023/06/19 04:33:12;;;;;;;16.97;12.80;;;20.20;99.90;;;;;;5085630;28;20204;-78
2023/06/19 04:35:40;;;;;;;19.70;12.00;;;20.30;99.90;;;;;;5088572;28;20237;-79
2023/06/19 04:38:06;;;;;;;13.13;11.83;;;20.40;99.90;;;;;;5071757;28;20188;-80
2023/06/19 04:40:32;;;;;;;12.33;10.93;;;20.50;99.90;;;;;;5090159;28;20500;-79
2023/06/19 04:42:59;;;;;;;12.03;10.70;;;20.60;99.90;;;;;;5071281;28;20819;-79
2023/06/19 04:45:25;;;;;;;19.27;11.60;;;20.70;99.90;;;;;;5074677;28;20458;-81
2023/06/19 04:47:50;;;;;;;26.60;12.03;;;20.90;99.90;;;;;;5087077;28;20495;-80
2023/06/19 04:50:16;;;;;;;14.53;12.43;;;21.00;99.90;;;;;;5089829;28;20207;-80
2023/06/19 04:52:42;;;;;;;19.10;13.53;;;21.10;99.90;;;;;;5071617;28;20180;-84
2023/06/19 04:55:11;;;;;;;12.57;10.73;;;21.20;99.90;;;;;;5070780;28;20244;-80
2023/06/19 04:57:37;;;;;;;18.07;12.47;;;21.30;99.90;;;;;;5089891;28;20417;-79
2023/06/19 05:00:06;;;;;;;14.77;12.00;;;21.40;99.90;;;;;;5070500;28;20449;-79
2023/06/19 05:02:33;;;;;;;15.63;12.20;;;21.40;99.90;;;;;;5071098;28;20707;-85
2023/06/19 05:05:02;;;;;;;16.77;12.17;;;21.50;99.90;;;;;;5068330;28;20482;-86
2023/06/19 05:07:31;;;;;;;14.67;12.00;;;21.60;99.90;;;;;;5067600;28;20483;-83
2023/06/19 05:09:58;;;;;;;18.47;12.53;;;21.70;99.90;;;;;;5071364;28;20491;-82
2023/06/19 05:12:24;;;;;;;18.90;12.40;;;21.70;99.90;;;;;;5089153;28;20420;-82
2023/06/19 05:14:49;;;;;;;12.53;11.23;;;21.80;99.90;;;;;;5071262;28;20563;-83
2023/06/19 05:17:15;;;;;;;14.43;11.27;;;21.90;99.90;;;;;;5088818;28;20212;-82
2023/06/19 05:19:41;;;;;;;15.47;11.83;;;22.00;99.90;;;;;;5084604;28;20196;-82
2023/06/19 05:22:06;;;;;;;912.00;495.17;;;22.10;99.90;;;;;;5088371;28;20172;-81
2023/06/19 05:24:32;;;;;;;34.30;22.90;;;22.20;99.90;;;;;;5088634;28;20337;-81
2023/06/19 05:26:58;;;;;;;23.70;14.30;;;22.20;99.90;;;;;;5065874;28;20263;-80
2023/06/19 05:29:24;;;;;;;15.53;11.83;;;22.30;99.90;;;;;;5087114;28;20582;-80
2023/06/19 05:31:50;;;;;;;15.50;12.93;;;22.30;99.90;;;;;;5086757;28;20177;-83
2023/06/19 05:34:16;;;;;;;15.20;10.70;;;22.40;99.90;;;;;;5080761;28;20449;-83
2023/06/19 05:36:44;;;;;;;11.63;10.43;;;22.50;99.90;;;;;;5087496;28;20461;-83
2023/06/19 05:39:10;;;;;;;11.60;9.97;;;22.60;99.90;;;;;;5088108;28;20649;-83
2023/06/19 05:41:36;;;;;;;11.70;10.47;;;22.70;99.90;;;;;;5061861;28;20709;-80
2023/06/19 05:44:02;;;;;;;11.50;10.37;;;22.80;99.90;;;;;;5063310;28;20240;-84
2023/06/19 05:46:27;;;;;;;12.60;11.30;;;22.90;99.90;;;;;;5080387;28;20431;-80
2023/06/19 05:48:54;;;;;;;12.30;10.00;;;23.00;99.90;;;;;;5065413;28;20203;-80
2023/06/19 05:51:20;;;;;;;11.23;9.30;;;23.10;99.90;;;;;;5064220;28;20173;-80
2023/06/19 05:53:46;;;;;;;9.73;8.73;;;23.20;99.90;;;;;;5062360;28;20480;-83
2023/06/19 05:56:12;;;;;;;8.97;8.10;;;23.30;99.90;;;;;;5082228;28;20469;-80
2023/06/19 05:58:39;;;;;;;10.80;9.10;;;23.50;99.90;;;;;;5058445;28;20432;-82
2023/06/19 06:01:04;;;;;;;10.10;8.67;;;23.50;99.90;;;;;;5082316;28;20185;-80
2023/06/19 06:03:30;;;;;;;8.60;7.80;;;23.70;99.90;;;;;;5078010;28;20417;-80
2023/06/19 06:06:02;;;;;;;10.40;8.33;;;23.80;99.90;;;;;;5064037;28;20195;-81
2023/06/19 06:08:29;;;;;;;8.60;7.80;;;23.90;99.90;;;;;;5068075;28;20510;-83
2023/06/19 06:10:55;;;;;;;11.80;7.70;;;24.10;99.90;;;;;;5087010;28;20426;-83
2023/06/19 06:13:20;;;;;;;8.70;7.90;;;24.20;99.90;;;;;;5067413;28;20443;-82
2023/06/19 06:15:46;;;;;;;9.23;8.40;;;24.30;99.90;;;;;;5085446;28;20214;-80
2023/06/19 06:18:11;;;;;;;9.80;8.90;;;24.40;99.90;;;;;;5064800;28;20208;-80
2023/06/19 06:20:37;;;;;;;8.20;7.40;;;24.50;99.90;;;;;;5086678;28;20204;-83
2023/06/19 06:23:04;;;;;;;8.60;7.10;;;24.60;99.90;;;;;;5078599;28;20641;-80
2023/06/19 06:25:29;;;;;;;7.97;7.17;;;24.70;99.90;;;;;;5071193;28;20278;-82
2023/06/19 06:27:55;;;;;;;8.20;7.10;;;24.90;99.90;;;;;;5082513;28;20464;-80
2023/06/19 06:30:22;;;;;;;8.20;7.50;;;24.90;99.90;;;;;;5063133;28;20211;-82
2023/06/19 06:32:48;;;;;;;8.27;7.37;;;25.10;99.90;;;;;;5083055;28;20506;-83
2023/06/19 06:35:14;;;;;;;8.10;7.30;;;25.20;99.90;;;;;;5084279;28;20472;-80
2023/06/19 06:37:40;;;;;;;8.80;7.90;;;25.30;99.90;;;;;;5084822;28;20184;-80
2023/06/19 06:40:12;;;;;;;7.70;7.00;;;25.40;99.90;;;;;;5065629;28;20252;-80
2023/06/19 06:42:38;;;;;;;9.90;7.90;;;25.50;99.90;;;;;;5080682;28;20706;-83
2023/06/19 06:45:07;;;;;;;9.90;7.50;;;25.60;99.90;;;;;;5072205;28;20464;-83
2023/06/19 06:47:35;;;;;;;8.87;7.97;;;25.60;99.90;;;;;;5070254;28;20937;-83
2023/06/19 06:50:00;;;;;;;9.27;8.30;;;25.70;99.90;;;;;;5079619;28;20978;-83
2023/06/19 06:52:27;;;;;;;9.43;7.93;;;25.80;99.90;;;;;;5063378;28;20417;-83
2023/06/19 06:54:53;;;;;;;8.47;7.67;;;25.90;99.90;;;;;;5082613;28;20782;-84
2023/06/19 06:57:19;;;;;;;8.13;7.03;;;26.00;99.90;;;;;;5077438;28;20509;-81
2023/06/19 06:59:44;;;;;;;9.13;8.30;;;26.10;99.90;;;;;;5082235;28;20232;-81
2023/06/19 07:02:10;;;;;;;8.60;7.80;;;26.20;99.90;;;;;;5085186;28;20180;-81
2023/06/19 07:04:36;;;;;;;8.47;7.27;;;26.30;99.90;;;;;;5065308;28;20565;-81
2023/06/19 07:07:03;;;;;;;7.33;6.73;;;26.30;99.90;;;;;;5066109;28;20280;-82
2023/06/19 07:09:29;;;;;;;6.50;5.90;;;26.40;99.90;;;;;;5056245;28;20200;-82
2023/06/19 07:11:55;;;;;;;6.87;6.27;;;26.50;99.90;;;;;;5063807;28;20425;-83
2023/06/19 07:14:20;;;;;;;7.73;6.60;;;26.60;99.90;;;;;;5068927;28;20345;-79
2023/06/19 07:16:46;;;;;;;6.83;6.13;;;26.70;99.90;;;;;;5084001;28;20204;-81
2023/06/19 07:19:12;;;;;;;8.00;7.30;;;26.80;99.90;;;;;;5066224;28;20367;-83
2023/06/19 07:21:38;;;;;;;7.37;6.67;;;26.80;99.90;;;;;;5064111;28;20184;-82
2023/06/19 07:24:04;;;;;;;6.53;5.97;;;26.90;99.90;;;;;;5063816;28;20460;-83
2023/06/19 07:26:30;;;;;;;6.70;6.10;;;27.00;99.90;;;;;;5064692;28;20833;-83
2023/06/19 07:28:56;;;;;;;7.83;7.13;;;27.00;99.90;;;;;;5062695;28;20551;-81
2023/06/19 07:31:22;;;;;;;7.00;6.37;;;27.10;99.30;;;;;;5081831;28;20431;-84
2023/06/19 07:33:48;;;;;;;6.63;5.93;;;27.20;98.00;;;;;;5051613;28;20189;-82
2023/06/19 07:36:15;;;;;;;6.07;5.47;;;27.30;97.90;;;;;;5055372;28;20271;-80
2023/06/19 07:38:42;;;;;;;7.13;6.53;;;27.30;97.40;;;;;;5075633;28;20179;-81
2023/06/19 07:41:09;;;;;;;6.70;6.10;;;27.50;95.50;;;;;;5066048;28;20721;-83
2023/06/19 07:43:36;;;;;;;7.90;7.10;;;27.50;93.70;;;;;;5064971;28;20853;-82
2023/06/19 07:46:02;;;;;;;7.23;6.60;;;27.50;93.70;;;;;;5082206;28;20434;-80
2023/06/19 07:48:27;;;;;;;6.60;6.10;;;27.60;94.70;;;;;;5065768;28;20794;-83
2023/06/19 07:50:53;;;;;;;7.03;6.40;;;27.60;94.10;;;;;;5066485;28;20442;-80
2023/06/19 07:53:19;;;;;;;7.50;6.80;;;27.70;94.70;;;;;;5082214;28;20262;-80
2023/06/19 07:55:45;;;;;;;6.30;5.70;;;27.80;94.80;;;;;;5082409;28;20590;-83
2023/06/19 07:58:11;;;;;;;7.30;6.60;;;27.90;94.50;;;;;;5082188;28;20454;-81
2023/06/19 08:00:37;;;;;;;7.20;6.50;;;28.00;94.20;;;;;;5062843;28;20494;-83
2023/06/19 08:03:03;;;;;;;6.60;6.00;;;28.00;93.90;;;;;;5060942;28;20422;-80
2023/06/19 08:05:28;;;;;;;6.70;6.00;;;28.10;94.50;;;;;;5079151;28;20203;-80
2023/06/19 08:07:54;;;;;;;7.03;6.40;;;28.10;94.50;;;;;;5081097;28;20203;-80
2023/06/19 08:10:20;;;;;;;5.97;5.50;;;28.20;94.60;;;;;;5076114;28;20292;-83
2023/06/19 08:12:45;;;;;;;7.63;6.77;;;28.30;94.10;;;;;;5065040;28;20187;-83
2023/06/19 08:15:13;;;;;;;7.07;6.37;;;28.30;93.30;;;;;;5048030;28;20251;-80
2023/06/19 08:17:40;;;;;;;7.00;6.40;;;28.30;94.60;;;;;;5057462;28;20816;-80
2023/06/19 08:20:06;;;;;;;6.83;6.23;;;28.40;94.80;;;;;;5084202;28;20833;-83
2023/06/19 08:22:32;;;;;;;11.93;7.33;;;28.40;95.50;;;;;;5064108;28;20957;-82
2023/06/19 08:24:58;;;;;;;6.83;6.23;;;28.40;95.10;;;;;;5082253;28;21025;-83
2023/06/19 08:27:24;;;;;;;11.43;6.93;;;28.50;94.50;;;;;;5066000;28;20444;-83
2023/06/19 08:29:49;;;;;;;8.47;6.63;;;28.50;95.10;;;;;;5079037;28;20207;-83
2023/06/19 08:32:16;;;;;;;6.33;5.83;;;28.60;95.50;;;;;;5077176;28;20362;-80
2023/06/19 08:34:41;;;;;;;8.23;7.10;;;28.60;93.10;;;;;;5083883;28;20717;-83
2023/06/19 08:37:08;;;;;;;7.40;6.37;;;28.60;93.30;;;;;;5083069;28;20432;-80
2023/06/19 08:39:35;;;;;;;6.60;6.10;;;28.60;92.40;;;;;;5062819;28;20212;-83
2023/06/19 08:42:02;;;;;;;6.73;6.13;;;28.60;92.50;;;;;;5060892;28;20444;-81
2023/06/19 08:44:28;;;;;;;7.07;6.47;;;28.70;92.10;;;;;;5060586;28;20509;-81
2023/06/19 08:46:54;;;;;;;192.93;134.40;;;28.80;92.30;;;;;;5064038;28;20763;-81
2023/06/19 08:49:19;;;;;;;28.77;24.00;;;28.70;93.90;;;;;;5081662;28;20449;-81
2023/06/19 08:51:45;;;;;;;8.13;7.43;;;28.80;93.30;;;;;;5065321;28;20183;-82
2023/06/19 08:54:13;;;;;;;8.53;6.67;;;28.90;93.50;;;;;;5082819;28;20265;-81
2023/06/19 08:56:39;;;;;;;8.00;7.30;;;28.90;94.40;;;;;;5064089;28;20204;-82
2023/06/19 08:59:12;;;;;;;9.70;6.93;;;29.00;94.60;;;;;;5062632;28;21163;-82
2023/06/19 09:01:38;;;;;;;6.87;6.17;;;28.90;94.80;;;;;;5082024;28;20190;-82
2023/06/19 09:04:11;;;;;;;7.57;6.87;;;29.00;95.00;;;;;;5082571;28;21148;-82
2023/06/19 09:06:56;;;;;;;6.80;6.20;;;29.00;95.20;;;;;;5065457;28;20431;-81
2023/06/19 09:09:23;;;;;;;7.47;6.77;;;29.00;95.30;;;;;;5065135;28;20462;-82
2023/06/19 09:12:04;;;;;;;7.53;6.93;;;29.10;94.40;;;;;;5083197;28;20446;-82
2023/06/19 09:14:38;;;;;;;6.53;5.93;;;29.30;94.30;;;;;;5067300;28;20508;-82
2023/06/19 09:17:07;;;;;;;9.53;7.27;;;29.40;93.60;;;;;;5080824;28;20497;-82
2023/06/19 09:19:36;;;;;;;6.77;6.27;;;29.50;93.20;;;;;;5065032;28;20491;-81
2023/06/19 09:22:07;;;;;;;6.90;6.30;;;29.60;92.30;;;;;;5084857;28;20510;-80
2023/06/19 09:24:37;;;;;;;7.60;6.80;;;29.60;92.70;;;;;;5084866;28;20487;-81
2023/06/19 09:27:13;;;;;;;8.50;7.40;;;29.70;92.70;;;;;;5066918;28;20424;-81
2023/06/19 09:29:43;;;;;;;7.10;6.40;;;29.70;92.10;;;;;;5085811;28;20439;-81
2023/06/19 09:32:19;;;;;;;8.10;7.17;;;29.80;91.00;;;;;;5083413;28;20459;-81
2023/06/19 09:34:46;;;;;;;7.83;7.03;;;29.80;91.00;;;;;;5084780;28;20487;-81
2023/06/19 09:37:12;;;;;;;11.27;7.40;;;29.80;91.10;;;;;;5068365;28;20514;-79
2023/06/19 09:39:39;;;;;;;7.67;6.97;;;29.90;90.90;;;;;;5086501;28;20448;-81
2023/06/19 09:42:07;;;;;;;8.50;7.33;;;29.80;90.10;;;;;;5066490;28;20478;-79
2023/06/19 09:44:44;;;;;;;7.60;6.87;;;29.90;90.40;;;;;;5081937;28;20891;-80
2023/06/19 09:47:24;;;;;;;9.50;7.00;;;29.90;90.60;;;;;;5082924;28;20413;-80
2023/06/19 09:49:54;;;;;;;8.30;7.53;;;30.00;90.60;;;;;;5085148;28;20508;-79
2023/06/19 09:52:24;;;;;;;7.73;7.03;;;30.10;91.50;;;;;;5078016;28;20475;-80
2023/06/19 09:54:51;;;;;;;7.30;6.70;;;30.20;91.20;;;;;;5076590;28;21012;-79
2023/06/19 09:57:19;;;;;;;10.20;8.70;;;30.30;90.20;;;;;;5082927;28;20650;-80
2023/06/19 09:59:49;;;;;;;14.07;11.73;;;30.30;90.50;;;;;;5066641;28;20882;-80
2023/06/19 10:02:15;;;;;;;9.63;7.10;;;30.40;90.60;;;;;;5065496;28;20433;-80
2023/06/19 10:04:46;;;;;;;7.60;6.90;;;30.50;89.50;;;;;;5076528;28;20836;-81
2023/06/19 10:07:19;;;;;;;7.67;6.97;;;30.50;90.30;;;;;;5084816;28;20928;-80
2023/06/19 10:10:07;;;;;;;7.77;7.00;;;30.50;89.80;;;;;;5079206;28;20564;-80
2023/06/19 10:12:43;;;;;;;7.90;7.20;;;30.40;88.20;;;;;;5065388;28;20620;-80
2023/06/19 10:15:15;;;;;;;8.30;7.60;;;30.40;90.30;;;;;;5065611;28;20479;-80
2023/06/19 10:17:46;;;;;;;8.17;6.93;;;30.40;89.20;;;;;;5080445;28;20428;-80
2023/06/19 10:20:20;;;;;;;7.97;7.17;;;30.40;89.30;;;;;;5072825;28;21038;-81
2023/06/19 10:23:07;;;;;;;8.17;7.47;;;30.50;88.80;;;;;;5079212;28;20416;-80
2023/06/19 10:25:38;;;;;;;7.27;6.67;;;30.50;87.90;;;;;;5066173;28;21063;-80
2023/06/19 10:28:06;;;;;;;8.57;7.80;;;30.40;88.40;;;;;;5067833;28;21184;-80
2023/06/19 10:30:34;;;;;;;7.70;7.00;;;30.30;88.50;;;;;;5085144;28;20503;-81
2023/06/19 10:33:02;;;;;;;8.07;7.37;;;30.20;88.30;;;;;;5085140;28;20447;-80
2023/06/19 10:35:28;;;;;;;8.20;7.50;;;30.20;89.20;;;;;;5081633;28;20508;-80
2023/06/19 10:37:54;;;;;;;8.50;7.70;;;30.30;89.80;;;;;;5068079;28;20481;-81
2023/06/19 10:40:20;;;;;;;7.93;7.23;;;30.30;89.00;;;;;;5054678;28;20204;-81
2023/06/19 10:42:46;;;;;;;8.73;7.10;;;30.40;89.30;;;;;;5083725;28;20495;-80
2023/06/19 10:45:15;;;;;;;7.00;6.30;;;30.50;90.00;;;;;;5082642;28;20204;-81
2023/06/19 10:47:42;;;;;;;8.40;7.70;;;30.60;88.50;;;;;;5083202;28;20408;-80
2023/06/19 10:50:12;;;;;;;7.90;7.20;;;30.60;87.80;;;;;;5082165;28;20463;-80
2023/06/19 10:52:48;;;;;;;8.67;7.87;;;30.60;87.80;;;;;;5078924;28;20925;-83
2023/06/19 10:55:15;;;;;;;9.87;7.93;;;30.70;90.00;;;;;;5079564;28;20802;-86
2023/06/19 10:57:44;;;;;;;8.30;7.50;;;30.70;87.10;;;;;;5062155;28;20416;-83
2023/06/19 11:00:14;;;;;;;8.67;7.87;;;30.70;89.10;;;;;;5078724;28;20445;-82
2023/06/19 11:02:43;;;;;;;8.87;8.07;;;30.70;88.60;;;;;;5063989;28;20430;-80
2023/06/19 11:05:12;;;;;;;8.23;7.50;;;30.80;88.60;;;;;;5076444;28;21174;-81
2023/06/19 11:07:38;;;;;;;8.70;8.00;;;30.80;88.80;;;;;;5081505;28;20851;-80
2023/06/19 11:10:04;;;;;;;8.53;7.83;;;30.80;87.80;;;;;;5078614;28;20815;-80
2023/06/19 11:12:32;;;;;;;9.13;7.43;;;30.80;88.30;;;;;;5060810;28;20456;-87
2023/06/19 11:14:58;;;;;;;8.50;7.70;;;30.90;87.80;;;;;;5080188;28;20797;-80
2023/06/19 11:17:23;;;;;;;8.33;7.63;;;30.80;88.00;;;;;;5079405;28;20429;-86
2023/06/19 11:19:50;;;;;;;9.27;8.30;;;30.90;87.90;;;;;;5071821;28;20205;-82
2023/06/19 11:22:16;;;;;;;8.80;8.00;;;30.90;88.60;;;;;;5059635;28;20362;-82
2023/06/19 11:24:46;;;;;;;8.20;7.60;;;30.90;88.40;;;;;;5063891;28;20602;-87
2023/06/19 11:27:28;;;;;;;9.43;8.53;;;31.00;89.60;;;;;;5060603;28;20334;-80
2023/06/19 11:30:02;;;;;;;8.60;7.70;;;31.00;87.40;;;;;;5077670;28;20548;-86
2023/06/19 11:32:41;;;;;;;9.20;8.30;;;31.10;87.80;;;;;;5082990;28;20641;-80
2023/06/19 11:35:09;;;;;;;20.43;18.90;;;30.90;88.90;;;;;;5080096;28;20455;-84
2023/06/19 11:37:35;;;;;;;9.87;8.93;;;31.00;88.00;;;;;;5082033;28;20409;-84
2023/06/19 11:40:04;;;;;;;10.47;9.57;;;30.90;90.10;;;;;;5080943;28;20457;-81
2023/06/19 11:42:32;;;;;;;8.70;7.90;;;30.80;88.40;;;;;;5078930;28;20483;-79
2023/06/19 11:45:06;;;;;;;9.37;8.57;;;30.60;90.50;;;;;;5087629;28;20483;-80
2023/06/19 11:47:32;;;;;;;9.73;8.67;;;30.50;89.60;;;;;;5070352;28;20839;-80
2023/06/19 11:49:58;;;;;;;8.60;7.90;;;30.60;89.80;;;;;;5067171;28;20700;-84
2023/06/19 11:52:24;;;;;;;9.33;8.57;;;30.60;89.70;;;;;;5076443;28;20981;-84
2023/06/19 11:54:50;;;;;;;9.47;8.67;;;30.60;89.30;;;;;;5054011;28;20268;-87
2023/06/19 11:57:15;;;;;;;10.90;8.40;;;30.60;89.20;;;;;;5049785;28;20212;-79
2023/06/19 11:59:42;;;;;;;9.20;8.40;;;30.50;89.90;;;;;;5078341;28;20208;-80
2023/06/19 12:02:08;;;;;;;9.00;8.10;;;30.60;89.40;;;;;;5085085;28;20640;-80
2023/06/19 12:04:34;;;;;;;10.30;7.23;;;30.60;89.30;;;;;;5083704;28;20459;-84
2023/06/19 12:07:01;;;;;;;9.27;8.37;;;30.70;90.20;;;;;;5081086;28;20990;-80
2023/06/19 12:09:27;;;;;;;8.90;8.10;;;30.70;90.20;;;;;;5064850;28;20469;-79
2023/06/19 12:11:53;;;;;;;9.50;8.60;;;30.80;89.90;;;;;;5064308;28;21006;-80
2023/06/19 12:14:20;;;;;;;9.40;8.30;;;30.80;88.30;;;;;;5083322;28;20509;-81
2023/06/19 12:16:46;;;;;;;10.53;9.63;;;30.80;90.20;;;;;;5065230;28;20476;-83
2023/06/19 12:19:12;;;;;;;9.23;7.80;;;30.50;90.80;;;;;;5064574;28;20662;-79
2023/06/19 12:21:38;;;;;;;9.20;8.30;;;29.90;91.40;;;;;;5064463;28;20707;-80
2023/06/19 12:24:04;;;;;;;9.17;8.30;;;30.10;91.40;;;;;;5062678;28;20197;-80
2023/06/19 12:26:30;;;;;;;8.43;7.60;;;30.30;91.20;;;;;;5083062;28;20172;-80
2023/06/19 12:28:55;;;;;;;11.80;9.23;;;30.40;90.90;;;;;;5081581;28;20455;-80
2023/06/19 12:31:21;;;;;;;8.73;7.70;;;30.70;89.90;;;;;;5082564;28;20401;-80
2023/06/19 12:33:48;;;;;;;9.63;7.63;;;30.80;88.80;;;;;;5065356;28;20785;-80
2023/06/19 12:36:14;;;;;;;10.47;8.30;;;30.80;89.40;;;;;;5065287;28;20216;-81